Lagoa Dourada, Brazil
Current Conditions -  °F | °C
As of 5:00 PM on Thursday 23 Oct 2014 (Local Time) from SBBH Reporting Station
Clear Clear  
Wind Chill: 81°   Ceiling: Unl
Heat Index: 81°   Visibility: 6mi
Dew Point: 57°   Wind: 6mph
Humidity: 45%   Direction: 110°ESE
Pressure: 30.06"   Gusts: NA
Location:  20.91°S, 44.08°W
Report Text: SBBH 231900Z 11005KT CAVOK 27/14 Q1018
Loading
Personal Weather Stations






























Interactive Weather Map
Tropical Storm Tracking
New forecast layout! Learn more

10-Day Weather Forecast

Advertisements
Track Severe Weather on mobile